Time;durP1;ratioP1;P1;durP2;ratioP2;P2;SDS_P1;SDS_P2;PMS_P1;PMS_P2;Temp;Humidity;BMP_temperature;BMP_pressure;BME280_temperature;BME280_humidity;BME280_pressure;Samples;Min_cycle;Max_cycle;Signal;HPM_P1;HPM_P2
2023/07/09 00:02:13;;;;;;;13.93;7.47;;;;;;;;;;5066480;28;20571;-60
2023/07/09 00:04:39;;;;;;;13.20;7.73;;;;;;;;;;5051264;28;20111;-63
2023/07/09 00:07:06;;;;;;;9.50;7.50;;;;;;;;;;5054381;28;20049;-60
2023/07/09 00:09:32;;;;;;;13.07;7.67;;;;;;;;;;5057604;28;20482;-60
2023/07/09 00:11:58;;;;;;;10.17;7.50;;;;;;;;;;5062995;28;20397;-60
2023/07/09 00:14:24;;;;;;;13.67;8.77;;;;;;;;;;5052188;28;20041;-60
2023/07/09 00:16:50;;;;;;;12.53;8.27;;;;;;;;;;5055938;28;20039;-60
2023/07/09 00:19:23;;;;;;;12.57;9.33;;;;;;;;;;5050394;28;20107;-60
2023/07/09 00:21:53;;;;;;;12.27;8.48;;;;;;;;;;5051754;28;20063;-61
2023/07/09 00:24:19;;;;;;;12.53;7.50;;;;;;;;;;5052488;28;20544;-60
2023/07/09 00:26:47;;;;;;;11.70;7.57;;;;;;;;;;5055948;28;20388;-60
2023/07/09 00:29:14;;;;;;;11.03;7.47;;;;;;;;;;5060053;28;20096;-60
2023/07/09 00:31:43;;;;;;;12.60;7.47;;;;;;;;;;5056283;28;20044;-61
2023/07/09 00:34:13;;;;;;;17.17;8.13;;;;;;;;;;5053588;28;20048;-60
2023/07/09 00:36:39;;;;;;;13.57;7.90;;;;;;;;;;5058571;28;20052;-60
2023/07/09 00:39:06;;;;;;;13.23;8.03;;;;;;;;;;5064765;28;20550;-60
2023/07/09 00:41:33;;;;;;;14.53;8.87;;;;;;;;;;5067328;28;20051;-60
2023/07/09 00:44:13;;;;;;;12.90;8.27;;;;;;;;;;5066543;28;20489;-60
2023/07/09 00:46:39;;;;;;;14.13;8.33;;;;;;;;;;5056581;28;20041;-61
2023/07/09 00:49:08;;;;;;;12.13;9.27;;;;;;;;;;5065355;28;20041;-60
2023/07/09 00:51:37;;;;;;;15.03;9.53;;;;;;;;;;5064591;28;20418;-60
2023/07/09 00:54:09;;;;;;;13.27;9.83;;;;;;;;;;5059688;28;20075;-60
2023/07/09 00:56:40;;;;;;;11.57;8.17;;;;;;;;;;5066432;28;20032;-60
2023/07/09 00:59:08;;;;;;;13.93;8.50;;;;;;;;;;5056799;28;20036;-60
2023/07/09 01:01:35;;;;;;;14.33;8.73;;;;;;;;;;5057765;28;20135;-60
2023/07/09 01:04:03;;;;;;;11.37;8.67;;;;;;;;;;5052733;28;20041;-60
2023/07/09 01:06:35;;;;;;;13.20;8.80;;;;;;;;;;5062620;28;20576;-60
2023/07/09 01:09:02;;;;;;;10.77;8.13;;;;;;;;;;5068194;28;20036;-60
2023/07/09 01:11:29;;;;;;;13.47;8.23;;;;;;;;;;5063362;28;20094;-60
2023/07/09 01:13:57;;;;;;;15.07;9.60;;;;;;;;;;5061170;28;20087;-60
2023/07/09 01:16:25;;;;;;;11.60;8.43;;;;;;;;;;5063287;28;20069;-60
2023/07/09 01:18:52;;;;;;;12.37;8.67;;;;;;;;;;5055733;28;20048;-60
2023/07/09 01:21:18;;;;;;;16.03;9.33;;;;;;;;;;5066855;28;20084;-60
2023/07/09 01:23:45;;;;;;;11.00;8.13;;;;;;;;;;5065340;28;20045;-60
2023/07/09 01:26:12;;;;;;;10.93;8.40;;;;;;;;;;5058613;28;20067;-60
2023/07/09 01:28:41;;;;;;;11.37;7.57;;;;;;;;;;5055418;28;20049;-60
2023/07/09 01:31:08;;;;;;;10.60;8.50;;;;;;;;;;5052864;28;20057;-60
2023/07/09 01:33:34;;;;;;;14.60;8.60;;;;;;;;;;5060490;28;20145;-60
2023/07/09 01:36:00;;;;;;;10.97;7.97;;;;;;;;;;5063396;28;20119;-60
2023/07/09 01:38:30;;;;;;;14.33;8.63;;;;;;;;;;5068277;28;20048;-60
2023/07/09 01:40:57;;;;;;;13.83;8.43;;;;;;;;;;5060959;28;20044;-60
2023/07/09 01:43:24;;;;;;;11.33;7.70;;;;;;;;;;5059931;28;20510;-60
2023/07/09 01:45:51;;;;;;;13.00;9.27;;;;;;;;;;5056515;28;20076;-60
2023/07/09 01:48:17;;;;;;;10.53;7.83;;;;;;;;;;5068204;28;20211;-60
2023/07/09 01:50:44;;;;;;;11.03;8.47;;;;;;;;;;5050128;28;20041;-60
2023/07/09 01:53:12;;;;;;;16.73;9.67;;;;;;;;;;5056096;28;20360;-60
2023/07/09 01:55:38;;;;;;;10.87;8.60;;;;;;;;;;5066330;28;20033;-60
2023/07/09 01:58:08;;;;;;;11.67;8.67;;;;;;;;;;5067922;28;20047;-60
2023/07/09 02:00:34;;;;;;;11.60;8.30;;;;;;;;;;5054805;28;20055;-61
2023/07/09 02:03:02;;;;;;;13.87;9.00;;;;;;;;;;5063109;28;20041;-60
2023/07/09 02:05:29;;;;;;;12.77;8.40;;;;;;;;;;5065186;28;20095;-60
2023/07/09 02:07:55;;;;;;;12.50;9.13;;;;;;;;;;5066167;28;20398;-60
2023/07/09 02:10:22;;;;;;;15.10;8.47;;;;;;;;;;5051134;28;20585;-61
2023/07/09 02:12:48;;;;;;;11.00;7.97;;;;;;;;;;5047807;28;20041;-60
2023/07/09 02:15:15;;;;;;;13.33;9.13;;;;;;;;;;5057739;28;20060;-60
2023/07/09 02:17:41;;;;;;;11.93;8.53;;;;;;;;;;5064437;28;20041;-60
2023/07/09 02:20:08;;;;;;;15.27;7.53;;;;;;;;;;5065047;28;20502;-61
2023/07/09 02:22:34;;;;;;;12.87;8.43;;;;;;;;;;5065964;28;20040;-60
2023/07/09 02:25:00;;;;;;;11.30;7.80;;;;;;;;;;5067003;28;20410;-61
2023/07/09 02:27:27;;;;;;;12.23;8.23;;;;;;;;;;5060262;28;20466;-60
2023/07/09 02:29:54;;;;;;;12.50;7.97;;;;;;;;;;5051034;28;20614;-60
2023/07/09 02:32:22;;;;;;;10.47;8.10;;;;;;;;;;5058814;28;20044;-60
2023/07/09 02:34:49;;;;;;;11.13;7.90;;;;;;;;;;5067278;28;20491;-60
2023/07/09 02:37:18;;;;;;;15.77;8.40;;;;;;;;;;5052490;28;20041;-60
2023/07/09 02:39:44;;;;;;;12.57;8.57;;;;;;;;;;5054469;28;20574;-60
2023/07/09 02:42:11;;;;;;;11.13;8.57;;;;;;;;;;5050533;28;20050;-60
2023/07/09 02:44:37;;;;;;;12.13;8.47;;;;;;;;;;5054660;28;20044;-60
2023/07/09 02:47:03;;;;;;;10.27;8.30;;;;;;;;;;5056580;28;20577;-61
2023/07/09 02:49:29;;;;;;;15.63;9.10;;;;;;;;;;5061497;28;20075;-60
2023/07/09 02:51:55;;;;;;;14.67;9.73;;;;;;;;;;5065425;28;20120;-60
2023/07/09 02:54:21;;;;;;;14.37;9.83;;;;;;;;;;5066968;28;20494;-60
2023/07/09 02:56:47;;;;;;;13.03;9.03;;;;;;;;;;5061040;28;20041;-60
2023/07/09 02:59:13;;;;;;;13.13;8.73;;;;;;;;;;5049072;28;20499;-60
2023/07/09 03:01:39;;;;;;;17.27;9.23;;;;;;;;;;5054289;28;20460;-60
2023/07/09 03:04:05;;;;;;;12.17;8.67;;;;;;;;;;5063507;28;20040;-60
2023/07/09 03:06:35;;;;;;;12.40;8.93;;;;;;;;;;5058170;28;20040;-60
2023/07/09 03:09:01;;;;;;;15.90;9.47;;;;;;;;;;5058042;28;20080;-61
2023/07/09 03:11:29;;;;;;;10.57;9.03;;;;;;;;;;5057738;28;20134;-60
2023/07/09 03:13:55;;;;;;;13.50;8.97;;;;;;;;;;5052207;28;20127;-60
2023/07/09 03:16:21;;;;;;;11.40;8.30;;;;;;;;;;5068359;28;20504;-60
2023/07/09 03:18:47;;;;;;;9.07;7.83;;;;;;;;;;5056459;28;20071;-60
2023/07/09 03:21:13;;;;;;;15.03;8.67;;;;;;;;;;5058368;28;20073;-60
2023/07/09 03:23:39;;;;;;;11.27;8.43;;;;;;;;;;5071964;28;20083;-61
2023/07/09 03:26:05;;;;;;;13.43;8.40;;;;;;;;;;5071583;28;20415;-60
2023/07/09 03:28:32;;;;;;;13.57;8.93;;;;;;;;;;5055922;28;20098;-60
2023/07/09 03:30:58;;;;;;;16.83;9.57;;;;;;;;;;5061997;28;20048;-60
2023/07/09 03:33:24;;;;;;;11.73;8.73;;;;;;;;;;5070871;28;20569;-61
2023/07/09 03:35:51;;;;;;;12.20;8.63;;;;;;;;;;5069267;28;20044;-61
2023/07/09 03:38:17;;;;;;;12.03;8.67;;;;;;;;;;5071409;28;20180;-61
2023/07/09 03:40:43;;;;;;;14.00;9.20;;;;;;;;;;5071957;28;20041;-61
2023/07/09 03:43:10;;;;;;;12.40;8.83;;;;;;;;;;5052227;28;20095;-62
2023/07/09 03:45:36;;;;;;;12.33;7.83;;;;;;;;;;5056629;28;20429;-60
2023/07/09 03:48:03;;;;;;;11.10;8.47;;;;;;;;;;5068376;28;20120;-61
2023/07/09 03:50:29;;;;;;;10.53;8.40;;;;;;;;;;5065906;28;20044;-61
2023/07/09 03:52:55;;;;;;;14.57;8.90;;;;;;;;;;5051086;28;20044;-60
2023/07/09 03:55:21;;;;;;;11.23;8.80;;;;;;;;;;5051219;28;20049;-61
2023/07/09 03:57:47;;;;;;;14.03;9.07;;;;;;;;;;5053435;28;20196;-61
2023/07/09 04:00:14;;;;;;;13.57;9.37;;;;;;;;;;5053660;28;20045;-61
2023/07/09 04:02:40;;;;;;;13.27;8.87;;;;;;;;;;5055976;28;20052;-61
2023/07/09 04:05:08;;;;;;;10.37;8.77;;;;;;;;;;5069264;28;20036;-61
2023/07/09 04:07:34;;;;;;;13.83;9.03;;;;;;;;;;5055685;28;20444;-61
2023/07/09 04:10:00;;;;;;;13.13;9.60;;;;;;;;;;5068917;28;20135;-61
2023/07/09 04:12:26;;;;;;;10.73;8.13;;;;;;;;;;5055530;28;20068;-61
2023/07/09 04:14:52;;;;;;;15.37;9.43;;;;;;;;;;5050290;28;20064;-61
2023/07/09 04:17:18;;;;;;;11.87;8.80;;;;;;;;;;5051325;28;20094;-61
2023/07/09 04:19:44;;;;;;;11.07;8.90;;;;;;;;;;5064598;28;20051;-60
2023/07/09 04:22:13;;;;;;;15.07;9.17;;;;;;;;;;5063233;28;20044;-61
2023/07/09 04:24:39;;;;;;;13.37;9.60;;;;;;;;;;5051777;28;20037;-61
2023/07/09 04:27:05;;;;;;;11.27;8.77;;;;;;;;;;5054992;28;20051;-61
2023/07/09 04:29:38;;;;;;;13.70;8.97;;;;;;;;;;5069321;28;20079;-61
2023/07/09 04:32:04;;;;;;;15.63;8.85;;;;;;;;;;5055201;28;20080;-61
2023/07/09 04:34:30;;;;;;;17.43;9.33;;;;;;;;;;5070440;28;20416;-61
2023/07/09 04:36:56;;;;;;;13.63;9.10;;;;;;;;;;5061002;28;20060;-61
2023/07/09 04:39:22;;;;;;;14.30;9.33;;;;;;;;;;5050633;28;20063;-61
2023/07/09 04:41:48;;;;;;;14.13;9.30;;;;;;;;;;5050220;28;20053;-61
2023/07/09 04:44:14;;;;;;;12.23;9.07;;;;;;;;;;5056531;28;20044;-61
2023/07/09 04:46:40;;;;;;;13.43;8.87;;;;;;;;;;5056758;28;20072;-61
2023/07/09 04:49:06;;;;;;;11.93;9.37;;;;;;;;;;5050008;28;20044;-61
2023/07/09 04:51:33;;;;;;;15.40;9.37;;;;;;;;;;5050017;28;20067;-61
2023/07/09 04:54:03;;;;;;;14.63;10.23;;;;;;;;;;5051501;28;20048;-61
2023/07/09 04:56:29;;;;;;;14.53;10.37;;;;;;;;;;5049963;28;20486;-61
2023/07/09 04:58:55;;;;;;;15.20;11.07;;;;;;;;;;5050132;28;20037;-61
2023/07/09 05:01:21;;;;;;;14.47;10.40;;;;;;;;;;5050339;28;20051;-61
2023/07/09 05:03:47;;;;;;;20.40;10.87;;;;;;;;;;5049348;28;20499;-61
2023/07/09 05:06:13;;;;;;;16.63;10.47;;;;;;;;;;5049903;28;20056;-61
2023/07/09 05:08:42;;;;;;;19.63;10.53;;;;;;;;;;5051987;28;20410;-61
2023/07/09 05:11:10;;;;;;;15.83;9.83;;;;;;;;;;5069843;28;20059;-61
2023/07/09 05:13:36;;;;;;;12.97;10.00;;;;;;;;;;5069933;28;20048;-61
2023/07/09 05:16:02;;;;;;;17.13;10.70;;;;;;;;;;5069779;28;20044;-61
2023/07/09 05:18:28;;;;;;;12.97;9.90;;;;;;;;;;5066334;28;20050;-61
2023/07/09 05:20:55;;;;;;;13.70;10.60;;;;;;;;;;5060752;28;20045;-61
2023/07/09 05:23:21;;;;;;;17.77;10.60;;;;;;;;;;5067441;28;20578;-61
2023/07/09 05:25:47;;;;;;;16.33;9.93;;;;;;;;;;5049220;28;20052;-61
2023/07/09 05:28:13;;;;;;;12.93;11.03;;;;;;;;;;5050717;28;20037;-62
2023/07/09 05:30:42;;;;;;;14.80;9.43;;;;;;;;;;5058442;28;20047;-61
2023/07/09 05:33:08;;;;;;;17.73;11.20;;;;;;;;;;5069091;28;20464;-61
2023/07/09 05:35:34;;;;;;;15.87;10.53;;;;;;;;;;5056083;28;20037;-61
2023/07/09 05:37:59;;;;;;;14.33;10.57;;;;;;;;;;5049575;28;20418;-61
2023/07/09 05:40:25;;;;;;;14.23;10.77;;;;;;;;;;5049191;28;20041;-61
2023/07/09 05:42:51;;;;;;;16.47;10.37;;;;;;;;;;5049521;28;20052;-61
2023/07/09 05:45:17;;;;;;;20.27;11.50;;;;;;;;;;5066915;28;20579;-61
2023/07/09 05:47:43;;;;;;;17.57;12.07;;;;;;;;;;5068501;28;20362;-61
2023/07/09 05:50:09;;;;;;;16.40;10.97;;;;;;;;;;5062013;28;20125;-61
2023/07/09 05:52:35;;;;;;;14.90;11.03;;;;;;;;;;5048400;28;20075;-61
2023/07/09 05:55:01;;;;;;;15.23;11.77;;;;;;;;;;5068601;28;20072;-61
2023/07/09 05:57:27;;;;;;;18.33;12.37;;;;;;;;;;5067734;28;20056;-61
2023/07/09 05:59:53;;;;;;;15.07;11.43;;;;;;;;;;5069455;28;20097;-61
2023/07/09 06:02:20;;;;;;;14.90;12.47;;;;;;;;;;5068621;28;20044;-61
2023/07/09 06:04:48;;;;;;;19.63;12.37;;;;;;;;;;5069173;28;20503;-62
2023/07/09 06:07:14;;;;;;;14.47;10.57;;;;;;;;;;5068871;28;20056;-61
2023/07/09 06:09:40;;;;;;;15.33;11.73;;;;;;;;;;5049356;28;20041;-61
2023/07/09 06:12:06;;;;;;;18.40;12.17;;;;;;;;;;5048810;28;20040;-61
2023/07/09 06:14:33;;;;;;;14.87;11.60;;;;;;;;;;5048831;28;20068;-61
2023/07/09 06:16:59;;;;;;;19.60;11.30;;;;;;;;;;5048551;28;20048;-60
2023/07/09 06:19:25;;;;;;;18.23;12.30;;;;;;;;;;5049026;28;20041;-61
2023/07/09 06:21:51;;;;;;;18.93;11.77;;;;;;;;;;5058576;28;20414;-60
2023/07/09 06:24:17;;;;;;;15.60;12.20;;;;;;;;;;5053358;28;20164;-60
2023/07/09 06:26:43;;;;;;;15.73;11.53;;;;;;;;;;5048781;28;20451;-61
2023/07/09 06:29:09;;;;;;;19.60;11.50;;;;;;;;;;5066755;28;20076;-60
2023/07/09 06:31:37;;;;;;;14.70;11.47;;;;;;;;;;5068336;28;20086;-60
2023/07/09 06:34:03;;;;;;;15.97;12.13;;;;;;;;;;5068416;28;20167;-61
2023/07/09 06:36:29;;;;;;;14.20;11.20;;;;;;;;;;5058129;28;20111;-61
2023/07/09 06:38:55;;;;;;;16.57;12.40;;;;;;;;;;5048177;28;20530;-60
2023/07/09 06:41:21;;;;;;;18.27;11.90;;;;;;;;;;5047562;28;20060;-60
2023/07/09 06:43:47;;;;;;;16.93;10.30;;;;;;;;;;5047868;28;20511;-60
2023/07/09 06:46:14;;;;;;;15.03;10.97;;;;;;;;;;5048351;28;20040;-60
2023/07/09 06:48:40;;;;;;;16.80;11.63;;;;;;;;;;5068010;28;20090;-60
2023/07/09 06:51:06;;;;;;;19.70;12.50;;;;;;;;;;5058682;28;20107;-60
2023/07/09 06:53:33;;;;;;;13.90;10.83;;;;;;;;;;5048048;28;20045;-61
2023/07/09 06:55:59;;;;;;;16.00;10.60;;;;;;;;;;5047990;28;20040;-61
2023/07/09 06:58:27;;;;;;;17.43;11.33;;;;;;;;;;5048493;28;20103;-61
2023/07/09 07:00:53;;;;;;;19.70;11.00;;;;;;;;;;5047840;28;20485;-61
2023/07/09 07:03:19;;;;;;;14.97;10.33;;;;;;;;;;5047757;28;20049;-61
2023/07/09 07:05:46;;;;;;;15.30;10.93;;;;;;;;;;5055065;28;20555;-61
2023/07/09 07:08:14;;;;;;;14.60;10.35;;;;;;;;;;5067048;28;20430;-61
2023/07/09 07:10:40;;;;;;;14.27;10.27;;;;;;;;;;5068073;28;20055;-61
2023/07/09 07:13:06;;;;;;;17.27;9.77;;;;;;;;;;5067623;28;20049;-61
2023/07/09 07:15:32;;;;;;;13.27;10.20;;;;;;;;;;5062164;28;20048;-61
2023/07/09 07:17:58;;;;;;;15.30;10.32;;;;;;;;;;5054102;28;20048;-61
2023/07/09 07:20:24;;;;;;;13.45;9.25;;;;;;;;;;5058933;28;20128;-61
2023/07/09 07:22:50;;;;;;;16.88;10.05;;;;;;;;;;5048122;28;20491;-62
2023/07/09 07:25:16;;;;;;;13.52;9.73;;;;;;;;;;5061652;28;20493;-62
2023/07/09 07:27:42;;;;;;;14.80;9.38;;;;;;;;;;5052935;28;20032;-61
2023/07/09 07:30:08;;;;;;;16.70;10.25;;;;;;;;;;5062529;28;20037;-61
2023/07/09 07:32:36;;;;;;;14.85;9.68;;;;;;;;;;5063729;28;20140;-61
2023/07/09 07:35:02;;;;;;;18.38;11.25;;;;;;;;;;5053541;28;20041;-61
2023/07/09 07:37:28;;;;;;;13.68;9.13;;;;;;;;;;5054112;28;20048;-62
2023/07/09 07:39:54;;;;;;;18.73;8.98;;;;;;;;;;5047702;28;20037;-62
2023/07/09 07:42:19;;;;;;;12.00;8.77;;;;;;;;;;5046898;28;20044;-61
2023/07/09 07:44:46;;;;;;;18.02;10.32;;;;;;;;;;5046700;28;20040;-61
2023/07/09 07:47:12;;;;;;;11.00;9.02;;;;;;;;;;5047877;28;20053;-62
2023/07/09 07:49:38;;;;;;;14.77;9.38;;;;;;;;;;5047435;28;20146;-61
2023/07/09 07:52:05;;;;;;;13.18;9.18;;;;;;;;;;5047474;28;20388;-61
2023/07/09 07:54:31;;;;;;;17.35;9.55;;;;;;;;;;5047549;28;20033;-62
2023/07/09 07:56:58;;;;;;;11.88;8.93;;;;;;;;;;5048570;28;20120;-61
2023/07/09 07:59:27;;;;;;;15.48;9.55;;;;;;;;;;5051341;28;20126;-61
2023/07/09 08:01:53;;;;;;;11.88;8.98;;;;;;;;;;5051072;28;20072;-62
2023/07/09 08:04:19;;;;;;;12.38;8.30;;;;;;;;;;5055580;28;20491;-62
2023/07/09 08:06:45;;;;;;;11.32;8.40;;;;;;;;;;5071199;28;20047;-62
2023/07/09 08:09:11;;;;;;;12.23;8.13;;;;;;;;;;5070644;28;20094;-61
2023/07/09 08:11:37;;;;;;;12.68;9.02;;;;;;;;;;5070590;28;20115;-59
2023/07/09 08:14:02;;;;;;;11.48;7.72;;;;;;;;;;5070987;28;20036;-59
2023/07/09 08:16:28;;;;;;;11.52;8.32;;;;;;;;;;5070595;28;20076;-60
2023/07/09 08:18:55;;;;;;;10.35;8.27;;;;;;;;;;5059198;28;20049;-59
2023/07/09 08:21:21;;;;;;;12.30;8.57;;;;;;;;;;5050472;28;20045;-59
2023/07/09 08:23:47;;;;;;;13.38;8.57;;;;;;;;;;5050572;28;20477;-59
2023/07/09 08:26:13;;;;;;;11.30;8.38;;;;;;;;;;5049736;28;20052;-59
2023/07/09 08:28:39;;;;;;;15.65;8.70;;;;;;;;;;5050580;28;20045;-60
2023/07/09 08:31:05;;;;;;;11.55;8.60;;;;;;;;;;5050349;28;20045;-61
2023/07/09 08:33:32;;;;;;;12.40;7.80;;;;;;;;;;5050396;28;20455;-60
2023/07/09 08:35:58;;;;;;;11.80;7.78;;;;;;;;;;5050288;28;20499;-60
2023/07/09 08:38:24;;;;;;;14.27;8.65;;;;;;;;;;5050088;28;20237;-61
2023/07/09 08:40:57;;;;;;;11.82;7.32;;;;;;;;;;5050220;28;20123;-60
2023/07/09 08:43:33;;;;;;;11.57;6.97;;;;;;;;;;5050419;28;20404;-60
2023/07/09 08:46:22;;;;;;;10.85;5.90;;;;;;;;;;5050521;28;20851;-60
2023/07/09 08:48:50;;;;;;;10.10;7.07;;;;;;;;;;5044416;28;20106;-60
2023/07/09 08:51:20;;;;;;;9.55;7.07;;;;;;;;;;5070505;28;20391;-60
2023/07/09 08:53:50;;;;;;;10.88;7.40;;;;;;;;;;5070428;28;20411;-60
2023/07/09 08:56:16;;;;;;;12.20;6.68;;;;;;;;;;5070082;28;20041;-60
2023/07/09 08:58:43;;;;;;;20.63;7.35;;;;;;;;;;5069947;28;20039;-60
2023/07/09 09:01:17;;;;;;;10.18;6.22;;;;;;;;;;5069937;28;20062;-60
2023/07/09 09:03:48;;;;;;;7.90;5.60;;;;;;;;;;5053470;28;20049;-60
2023/07/09 09:06:27;;;;;;;9.15;6.03;;;;;;;;;;5049722;28;20396;-60
2023/07/09 09:08:59;;;;;;;12.60;6.45;;;;;;;;;;5049222;28;20045;-60
2023/07/09 09:11:48;;;;;;;10.25;7.10;;;;;;;;;;5049491;28;20045;-60
2023/07/09 09:14:33;;;;;;;14.05;6.60;;;;;;;;;;5050473;28;20107;-60
2023/07/09 09:17:00;;;;;;;9.63;5.75;;;;;;;;;;5049803;28;20080;-60
2023/07/09 09:19:26;;;;;;;12.65;5.35;;;;;;;;;;5049872;28;20466;-60
2023/07/09 09:21:57;;;;;;;11.20;4.90;;;;;;;;;;5049710;28;20085;-60
2023/07/09 09:24:39;;;;;;;11.43;6.07;;;;;;;;;;5049495;28;20040;-60
2023/07/09 09:27:05;;;;;;;9.45;6.35;;;;;;;;;;5049781;28;20124;-60
2023/07/09 09:29:32;;;;;;;8.88;6.40;;;;;;;;;;5059564;28;20048;-61
2023/07/09 09:31:59;;;;;;;7.65;5.25;;;;;;;;;;5069684;28;20046;-60
2023/07/09 09:34:29;;;;;;;10.25;6.10;;;;;;;;;;5069232;28;20059;-61
2023/07/09 09:36:56;;;;;;;8.10;5.13;;;;;;;;;;5069128;28;20048;-61
2023/07/09 09:39:26;;;;;;;9.75;5.90;;;;;;;;;;5068814;28;20449;-61
2023/07/09 09:41:57;;;;;;;10.07;6.40;;;;;;;;;;5069075;28;20057;-61
2023/07/09 09:44:27;;;;;;;9.93;6.50;;;;;;;;;;5068667;28;20475;-61
2023/07/09 09:46:56;;;;;;;9.60;6.32;;;;;;;;;;5068996;28;20082;-61
2023/07/09 09:49:22;;;;;;;8.23;6.20;;;;;;;;;;5068515;28;20040;-61
2023/07/09 09:51:48;;;;;;;8.52;6.13;;;;;;;;;;5069059;28;20113;-61
2023/07/09 09:54:22;;;;;;;7.60;6.25;;;;;;;;;;5068778;28;20548;-61
2023/07/09 09:56:50;;;;;;;9.32;6.20;;;;;;;;;;5066306;28;20502;-61
2023/07/09 09:59:21;;;;;;;9.45;5.80;;;;;;;;;;5048489;28;20143;-61
2023/07/09 10:01:47;;;;;;;8.30;6.20;;;;;;;;;;5048779;28;20069;-61
2023/07/09 10:04:17;;;;;;;12.25;6.65;;;;;;;;;;5048331;28;20418;-61
2023/07/09 10:06:46;;;;;;;9.73;6.03;;;;;;;;;;5049229;28;20049;-61
2023/07/09 10:09:28;;;;;;;9.57;5.85;;;;;;;;;;5048485;28;20443;-61
2023/07/09 10:11:53;;;;;;;8.18;5.75;;;;;;;;;;5048964;28;20051;-61
2023/07/09 10:14:19;;;;;;;7.40;6.18;;;;;;;;;;5048097;28;20044;-60
2023/07/09 10:16:47;;;;;;;11.95;6.75;;;;;;;;;;5048402;28;20044;-61
2023/07/09 10:19:13;;;;;;;8.85;6.80;;;;;;;;;;5048689;28;20044;-61
2023/07/09 10:22:00;;;;;;;8.32;6.07;;;;;;;;;;5048507;28;20037;-61
2023/07/09 10:24:32;;;;;;;8.70;5.50;;;;;;;;;;5048070;28;20564;-61
2023/07/09 10:27:09;;;;;;;11.35;6.50;;;;;;;;;;5055475;28;20123;-61
2023/07/09 10:29:53;;;;;;;7.47;5.70;;;;;;;;;;5068477;28;20163;-61
2023/07/09 10:32:22;;;;;;;9.45;5.50;;;;;;;;;;5068149;28;20119;-61
2023/07/09 10:35:00;;;;;;;7.80;5.63;;;;;;;;;;5067689;28;20079;-61
2023/07/09 10:37:37;;;;;;;10.45;5.75;;;;;;;;;;5067948;28;20059;-61
2023/07/09 10:40:05;;;;;;;9.70;6.28;;;;;;;;;;5068103;28;20100;-61
2023/07/09 10:42:44;;;;;;;8.43;4.95;;;;;;;;;;5053863;28;20475;-61
2023/07/09 10:45:36;;;;;;;6.10;5.45;;;;;;;;;;5048144;28;20094;-61
2023/07/09 10:48:17;;;;;;;8.90;5.53;;;;;;;;;;5045789;28;20048;-61
2023/07/09 10:50:53;;;;;;;10.55;5.82;;;;;;;;;;5048092;28;20049;-61
2023/07/09 10:53:19;;;;;;;11.82;5.45;;;;;;;;;;5048079;28;20068;-61
2023/07/09 10:55:51;;;;;;;6.75;5.15;;;;;;;;;;5048182;28;20078;-61
2023/07/09 10:58:25;;;;;;;8.27;4.85;;;;;;;;;;5047326;28;20037;-61
2023/07/09 11:00:51;;;;;;;7.45;4.85;;;;;;;;;;5047900;28;20056;-61
2023/07/09 11:03:22;;;;;;;7.78;5.45;;;;;;;;;;5047641;28;20041;-61
2023/07/09 11:05:49;;;;;;;8.90;5.13;;;;;;;;;;5047901;28;20132;-62
2023/07/09 11:08:17;;;;;;;9.30;5.78;;;;;;;;;;5047976;28;20076;-61
2023/07/09 11:10:55;;;;;;;9.13;5.28;;;;;;;;;;5049737;28;20076;-61
2023/07/09 11:13:26;;;;;;;8.60;4.97;;;;;;;;;;5068128;28;20041;-61
2023/07/09 11:15:56;;;;;;;10.65;4.90;;;;;;;;;;5067472;28;20429;-61
2023/07/09 11:18:31;;;;;;;9.88;5.03;;;;;;;;;;5067675;28;20498;-61
2023/07/09 11:21:01;;;;;;;6.10;4.55;;;;;;;;;;5067995;28;20049;-61
2023/07/09 11:23:37;;;;;;;8.07;4.97;;;;;;;;;;5065963;28;20056;-61
2023/07/09 11:26:12;;;;;;;9.57;5.28;;;;;;;;;;5047928;28;20079;-61
2023/07/09 11:28:39;;;;;;;6.10;4.70;;;;;;;;;;5047690;28;20143;-61
2023/07/09 11:31:22;;;;;;;6.97;4.85;;;;;;;;;;5048088;28;20131;-61
2023/07/09 11:34:00;;;;;;;8.02;4.13;;;;;;;;;;5051861;28;20049;-61
2023/07/09 11:36:28;;;;;;;6.30;4.57;;;;;;;;;;5052092;28;20045;-61
2023/07/09 11:38:54;;;;;;;10.50;5.65;;;;;;;;;;5050942;28;20511;-61
2023/07/09 11:41:40;;;;;;;8.68;5.72;;;;;;;;;;5051309;28;20060;-61
2023/07/09 11:44:09;;;;;;;7.50;4.72;;;;;;;;;;5051319;28;20411;-61
2023/07/09 11:46:37;;;;;;;7.10;4.43;;;;;;;;;;5051566;28;20045;-61
2023/07/09 11:49:04;;;;;;;8.32;5.15;;;;;;;;;;5050999;28;20106;-61
2023/07/09 11:51:42;;;;;;;7.20;4.30;;;;;;;;;;5051331;28;20048;-61
2023/07/09 11:54:11;;;;;;;6.90;4.38;;;;;;;;;;5051562;28;20507;-61
2023/07/09 11:56:37;;;;;;;9.10;5.60;;;;;;;;;;5051469;28;20534;-61
2023/07/09 11:59:04;;;;;;;7.03;4.65;;;;;;;;;;5051311;28;20080;-61
2023/07/09 12:01:43;;;;;;;8.57;4.88;;;;;;;;;;5051431;28;20094;-61
2023/07/09 12:04:13;;;;;;;7.32;4.53;;;;;;;;;;5051186;28;20498;-61
2023/07/09 12:06:40;;;;;;;5.43;3.93;;;;;;;;;;5051321;28;20041;-61
2023/07/09 12:09:06;;;;;;;9.60;4.13;;;;;;;;;;5051241;28;20403;-61
2023/07/09 12:11:34;;;;;;;7.88;4.20;;;;;;;;;;5050736;28;20045;-61
2023/07/09 12:14:04;;;;;;;5.88;4.07;;;;;;;;;;5050840;28;20395;-61
2023/07/09 12:16:35;;;;;;;6.95;4.45;;;;;;;;;;5050867;28;20041;-61
2023/07/09 12:19:01;;;;;;;9.45;5.30;;;;;;;;;;5050793;28;20558;-61
2023/07/09 12:21:27;;;;;;;7.00;4.32;;;;;;;;;;5058096;28;20052;-61
2023/07/09 12:23:55;;;;;;;8.15;4.15;;;;;;;;;;5070550;28;20044;-61
2023/07/09 12:26:22;;;;;;;7.15;4.47;;;;;;;;;;5070989;28;20048;-61
2023/07/09 12:28:51;;;;;;;5.75;4.05;;;;;;;;;;5070790;28;20090;-61
2023/07/09 12:31:17;;;;;;;7.57;4.30;;;;;;;;;;5070088;28;20075;-61
2023/07/09 12:33:50;;;;;;;8.60;4.78;;;;;;;;;;5070062;28;20522;-61
2023/07/09 12:36:18;;;;;;;7.80;4.43;;;;;;;;;;5061892;28;20170;-61
2023/07/09 12:38:45;;;;;;;6.30;4.10;;;;;;;;;;5060184;28;20566;-61
2023/07/09 12:41:41;;;;;;;7.47;4.25;;;;;;;;;;5070371;28;20495;-61
2023/07/09 12:44:15;;;;;;;7.50;4.63;;;;;;;;;;5064228;28;20430;-61
2023/07/09 12:46:41;;;;;;;8.45;3.88;;;;;;;;;;5070283;28;20498;-61
2023/07/09 12:49:07;;;;;;;6.10;4.38;;;;;;;;;;5070187;28;20060;-61
2023/07/09 12:51:33;;;;;;;5.53;4.22;;;;;;;;;;5057010;28;20045;-61
2023/07/09 12:54:13;;;;;;;5.85;4.13;;;;;;;;;;5050322;28;20426;-61
2023/07/09 12:56:39;;;;;;;7.85;4.78;;;;;;;;;;5070152;28;20056;-61
2023/07/09 12:59:25;;;;;;;9.00;4.50;;;;;;;;;;5070143;28;20036;-61
2023/07/09 13:02:01;;;;;;;8.85;4.80;;;;;;;;;;5069332;28;20052;-60
2023/07/09 13:04:35;;;;;;;9.20;4.57;;;;;;;;;;5069879;28;20080;-61
2023/07/09 13:07:02;;;;;;;7.15;4.22;;;;;;;;;;5051419;28;20049;-61
2023/07/09 13:09:28;;;;;;;7.70;4.70;;;;;;;;;;5049838;28;20049;-61
2023/07/09 13:11:54;;;;;;;9.85;5.22;;;;;;;;;;5049808;28;20401;-60
2023/07/09 13:14:22;;;;;;;7.97;4.78;;;;;;;;;;5049625;28;20045;-60
2023/07/09 13:16:48;;;;;;;10.13;5.00;;;;;;;;;;5049543;28;20041;-61
2023/07/09 13:19:14;;;;;;;10.30;4.97;;;;;;;;;;5050010;28;20052;-60
2023/07/09 13:21:41;;;;;;;8.77;4.85;;;;;;;;;;5066869;28;20380;-60
2023/07/09 13:24:14;;;;;;;7.53;4.93;;;;;;;;;;5069424;28;20550;-60
2023/07/09 13:26:40;;;;;;;7.95;4.80;;;;;;;;;;5069703;28;20041;-61
2023/07/09 13:29:12;;;;;;;6.97;4.60;;;;;;;;;;5069467;28;20048;-60
2023/07/09 13:31:38;;;;;;;9.10;5.25;;;;;;;;;;5069511;28;20045;-61
2023/07/09 13:34:09;;;;;;;9.05;5.55;;;;;;;;;;5055982;28;20115;-60
2023/07/09 13:36:35;;;;;;;8.05;5.03;;;;;;;;;;5049340;28;20206;-60
2023/07/09 13:39:01;;;;;;;11.10;5.45;;;;;;;;;;5049233;28;20427;-60
2023/07/09 13:41:27;;;;;;;7.82;5.38;;;;;;;;;;5049367;28;20056;-61
2023/07/09 13:43:53;;;;;;;14.68;5.05;;;;;;;;;;5049499;28;20049;-60
2023/07/09 13:46:19;;;;;;;9.13;5.32;;;;;;;;;;5048607;28;20458;-61
2023/07/09 13:48:45;;;;;;;9.68;5.18;;;;;;;;;;5060953;28;20049;-61
2023/07/09 13:51:20;;;;;;;9.27;5.57;;;;;;;;;;5069359;28;20044;-61
2023/07/09 13:53:46;;;;;;;10.27;5.22;;;;;;;;;;5068803;28;20576;-60
2023/07/09 13:56:12;;;;;;;11.73;6.13;;;;;;;;;;5069109;28;20117;-61
2023/07/09 13:58:38;;;;;;;8.07;4.95;;;;;;;;;;5068569;28;20131;-60
2023/07/09 14:01:12;;;;;;;8.35;5.88;;;;;;;;;;5068752;28;20068;-60
2023/07/09 14:03:38;;;;;;;9.52;5.15;;;;;;;;;;5055065;28;20049;-60
2023/07/09 14:06:05;;;;;;;5.97;4.70;;;;;;;;;;5049047;28;20094;-61
2023/07/09 14:08:31;;;;;;;8.25;5.15;;;;;;;;;;5048487;28;20533;-61
2023/07/09 14:10:57;;;;;;;8.70;4.80;;;;;;;;;;5048978;28;20370;-60
2023/07/09 14:13:25;;;;;;;8.98;5.45;;;;;;;;;;5048885;28;20078;-60
2023/07/09 14:15:51;;;;;;;8.95;5.18;;;;;;;;;;5048495;28;20502;-60
2023/07/09 14:18:18;;;;;;;12.02;6.47;;;;;;;;;;5061182;28;20052;-61
2023/07/09 14:20:45;;;;;;;9.23;5.30;;;;;;;;;;5068623;28;20041;-60
2023/07/09 14:23:12;;;;;;;7.28;5.35;;;;;;;;;;5067984;28;20387;-60
2023/07/09 14:25:38;;;;;;;9.43;4.93;;;;;;;;;;5068334;28;20114;-60
2023/07/09 14:28:15;;;;;;;9.45;5.80;;;;;;;;;;5068563;28;20048;-60
2023/07/09 14:30:43;;;;;;;9.48;5.32;;;;;;;;;;5068380;28;20575;-60
2023/07/09 14:33:12;;;;;;;7.63;5.55;;;;;;;;;;5054553;28;20106;-60
2023/07/09 14:35:38;;;;;;;10.63;5.47;;;;;;;;;;5052185;28;20110;-60
2023/07/09 15:30:02;;;;;;;20.80;10.53;;;;;;;;;;4897315;22;22683;-62